This is the latest recevied weather packets stored in our database for station/object OM1PU-6. If no packets are shown the sender has not sent any weather packets the latest 10 day(s).
| Time | Temp. | Humidity | Pressure | Rain* | Wind** | Luminosity | Snow |
|---|---|---|---|---|---|---|---|
| 1777439894 | 7.78° C | 50% | 1034.6 hPa | 0 mm | - | - | - |
| 1777438993 | 7.78° C | 51% | 1034.6 hPa | 0 mm | - | - | - |
| 1777438094 | 6.67° C | 53% | 1034.4 hPa | 0 mm | - | - | - |
| 1777437193 | 6.11° C | 55% | 1034.2 hPa | 0 mm | - | - | - |
| 1777436303 | 5.56° C | 57% | 1034.1 hPa | 0 mm | - | - | - |
| 1777435393 | 5.56° C | 58% | 1033.8 hPa | 0 mm | - | - | - |
| 1777434493 | 5.56° C | 56% | 1033.7 hPa | 0 mm | - | - | - |
| 1777433593 | 5.56° C | 57% | 1033.5 hPa | 0 mm | - | - | - |
| 1777432694 | 5.56° C | 54% | 1033.6 hPa | 0 mm | - | - | - |
| 1777431793 | 6.11° C | 55% | 1033.5 hPa | 0 mm | - | - | - |
| 1777430894 | 6.67° C | 54% | 1033.5 hPa | 0 mm | - | - | - |
| 1777429993 | 7.22° C | 52% | 1033.1 hPa | 0 mm | - | - | - |
| 1777429093 | 7.22° C | 51% | 1033.3 hPa | 0 mm | - | - | - |
| 1777428193 | 7.78° C | 52% | 1033.1 hPa | 0 mm | - | - | - |
| 1777427293 | 7.78° C | 53% | 1033.2 hPa | 0 mm | - | - | - |
| 1777426393 | 7.78° C | 52% | 1033.1 hPa | 0 mm | - | - | - |
| 1777425493 | 8.33° C | 50% | 1032.8 hPa | 0 mm | - | - | - |
| 1777424593 | 8.89° C | 49% | 1033 hPa | 0 mm | - | - | - |
| 1777423693 | 8.89° C | 48% | 1032.8 hPa | 0 mm | - | - | - |
| 1777422794 | 8.33° C | 51% | 1032.9 hPa | 0 mm | - | - | - |
| 1777421893 | 8.33° C | 52% | 1032.7 hPa | 0 mm | - | - | - |
| 1777420993 | 8.89° C | 52% | 1032.8 hPa | 0 mm | - | - | - |
| 1777420093 | 9.44° C | 50% | 1032.6 hPa | 0 mm | - | - | - |
| 1777419193 | 10° C | 48% | 1032.8 hPa | 0 mm | - | - | - |
| 1777418293 | 10° C | 49% | 1032.6 hPa | 0 mm | - | - | - |
* Rain latest 24 hours (hover to see other rain measurements)
** Current wind speed in m/s (hover to see current wind gust speed)